Phoenix Sky Harbor International Airport
KPHX : rendu visible

Aérodrome :











RETROUVEZ-NOUS SUR...

 
LOGIN :

S'inscrire | Disclaimer

   EN    FR    IT 

 









Légende :    VFR   VFR Marginal   IFR   IFR Intensif   IFR Très Intensif
Visi : 
Plafond : 
>= 8 km
>= 3000ft
5 à 8 km
1000 à 3000 ft
1500m à 5 km
500 à 1000 ft
800 à 1500m
200 à 500 ft
< 800m
< 200 ft
Symboles :   Orages  Brouillard  Fortes neiges  Fortes précipitations  Vent > 20 kt






- Altitude de l'aérodrome : 1135 ft
- Code IATA : PHX


KPHX - Phoenix Sky Harbor International

DERNIER METAR :
  • 060851Z 31006KT 10SM CLR 34/00 A2973 RMK AO2 SLP044 T03440000 58002 $

METARs EXPIRÉS :
  • 060751Z 27006KT 10SM CLR 36/00 A2973 RMK AO2 SLP045 T03560000 $
  • 060651Z 26005KT 10SM CLR 36/00 A2974 RMK AO2 SLP046 T03610000 404440306 $

TAF KPHX
Valide du 06 à 09h jusqu'au 07 à 12h UTC


060850Z 0609/0712 29006KT P6SM SKC
TEMPO 0610/0612 VRB03KT
FM061200 09005KT P6SM SKC
FM061800 23008KT P6SM FEW150
FM062000 27010G20KT P6SM FEW200
FM070600 27006KT P6SM SKC
FIR KZAB / Amérique du Nord



MET'MAP, la Météo Aéronautique d'un coup d'oeil ! - Copyright ORBIFLY Décembre 2007 - Disclaimer

ORBIFLY MET'MAP TEAM :

Programmation & Développement : Alexandra Zaïnal
Sur une idée originale de : Baudouin d'Aumeries
Assistance à la programmation : Marc-Olivier Méhu
Soutien technique & logistique : Manuel Goepfert

Contact : metmap@orbifly.com




SOURCES & CREDITS :

   NOAA       Earth
Advisory